Time;durP1;ratioP1;P1;durP2;ratioP2;P2;SDS_P1;SDS_P2;PMS_P1;PMS_P2;Temp;Humidity;BMP_temperature;BMP_pressure;BME280_temperature;BME280_humidity;BME280_pressure;Samples;Min_cycle;Max_cycle;Signal;HPM_P1;HPM_P2
2022/08/24 00:01:06;;;;;;;6.10;0.80;;;;;;;17.94;67.22;98920.22;5066067;28;20046;-62
2022/08/24 00:04:11;;;;;;;3.63;0.40;;;;;;;18.15;65.51;98912.63;5066443;28;20288;-63
2022/08/24 00:07:06;;;;;;;2.83;0.67;;;;;;;18.28;66.88;98900.25;5027110;28;20289;-63
2022/08/24 00:09:58;;;;;;;4.30;0.87;;;;;;;18.49;65.17;98882.84;5039477;28;20300;-64
2022/08/24 00:12:39;;;;;;;3.13;0.80;;;;;;;18.88;63.77;98933.91;5026935;28;20292;-64
2022/08/24 00:15:20;;;;;;;4.63;0.80;;;;;;;19.11;64.60;98934.06;5025886;28;20360;-62
2022/08/24 00:17:59;;;;;;;6.60;0.73;;;;;;;19.42;64.84;98942.38;5025967;28;20293;-63
2022/08/24 00:20:45;;;;;;;3.23;0.70;;;;;;;19.55;62.93;98943.19;5009401;28;20046;-64
2022/08/24 00:23:21;;;;;;;5.53;0.50;;;;;;;19.76;63.07;98941.59;5042604;28;20319;-65
2022/08/24 00:26:29;;;;;;;;;;;;;;;;;;;;;
2022/08/24 00:29:20;;;;;;;20.23;1.33;;;;;;;20.09;62.96;98942.63;4990145;28;20308;-62
2022/08/24 00:32:48;;;;;;;2.53;0.50;;;;;;;20.13;60.78;98952.06;5043776;28;20273;-63
2022/08/24 00:35:47;;;;;;;4.27;1.40;;;;;;;20.00;61.10;98951.31;4957595;28;20286;-60
2022/08/24 00:38:19;;;;;;;5.13;0.90;;;;;;;19.89;60.69;98956.56;4955060;28;20307;-61
2022/08/24 00:41:19;;;;;;;4.00;0.80;;;;;;;19.98;61.30;98966.50;4985464;28;20463;-59
2022/08/24 00:44:25;;;;;;;1.70;0.43;;;;;;;19.82;59.50;98954.41;4959438;28;20336;-60
2022/08/24 00:47:36;;;;;;;3.13;0.60;;;;;;;19.92;60.64;98956.34;4957408;28;20321;-62
2022/08/24 00:51:16;;;;;;;2.37;0.40;;;;;;;19.90;55.95;98963.59;4969514;28;20306;-60
2022/08/24 00:54:31;;;;;;;4.00;0.57;;;;;;;19.93;58.63;98963.34;4983952;28;20294;-61
2022/08/24 00:58:11;;;;;;;2.77;0.50;;;;;;;20.10;56.88;98970.03;4938193;28;20290;-60
2022/08/24 01:01:05;;;;;;;4.53;0.77;;;;;;;20.14;56.09;98979.41;4927528;29;20332;-61
2022/08/24 01:40:15;;;;;;;5.17;2.00;;;;;;;19.72;53.65;98981.69;4706646;30;20065;-59
2022/08/24 01:47:38;;;;;;;32.28;20.08;;;;;;;19.64;53.98;98990.19;4704811;30;20310;-65
2022/08/24 01:55:06;;;;;;;6.93;3.73;;;;;;;20.59;54.28;98996.28;4743336;30;20295;-66
2022/08/24 01:58:42;;;;;;;7.77;1.90;;;;;;;20.81;54.50;99013.19;4863385;29;20354;-65
2022/08/24 02:02:13;;;;;;;12.60;8.57;;;;;;;21.07;52.31;99009.31;4816248;29;20279;-65
2022/08/24 02:05:50;;;;;;;88.10;59.90;;;;;;;21.71;49.34;99018.38;4824818;29;20491;-63
2022/08/24 02:13:27;;;;;;;10.70;7.90;;;;;;;22.13;48.37;99023.75;4923509;29;20294;-65
2022/08/24 02:17:09;;;;;;;9.17;3.80;;;;;;;22.36;48.64;99046.63;4865060;29;20381;-64
2022/08/24 02:24:39;;;;;;;8.10;1.77;;;;;;;21.99;51.28;99067.47;4777421;29;20295;-61
2022/08/24 02:31:52;;;;;;;5.20;0.83;;;;;;;21.88;51.86;99078.97;4767321;30;20346;-64
2022/08/24 02:38:39;;;;;;;3.20;0.73;;;;;;;21.66;54.02;99089.69;4779294;29;20290;-64
2022/08/24 02:41:42;;;;;;;4.30;0.57;;;;;;;21.15;52.03;99091.03;4814662;29;20364;-62
2022/08/24 02:44:34;;;;;;;6.23;0.57;;;;;;;20.80;53.31;99091.16;4857701;29;20298;-64
2022/08/24 02:47:54;;;;;;;2.30;0.47;;;;;;;20.74;53.97;99096.91;4883272;29;20328;-66
2022/08/24 02:51:10;;;;;;;4.07;0.60;;;;;;;20.28;54.70;99089.78;4857738;29;20290;-64
2022/08/24 02:54:59;;;;;;;4.73;0.60;;;;;;;20.11;55.31;99078.59;4852727;29;20320;-63
2022/08/24 02:58:00;;;;;;;3.00;0.50;;;;;;;20.15;55.97;99125.16;4888820;29;20305;-62
2022/08/24 03:01:16;;;;;;;;;;;;;;;19.92;54.87;99141.91;4863990;29;20344;-64
2022/08/24 03:08:27;;;;;;;9.97;1.40;;;;;;;19.81;56.91;99151.47;4930596;28;20297;-60
2022/08/24 03:11:54;;;;;;;5.53;0.60;;;;;;;19.66;56.05;99136.66;4885104;29;20760;-64
2022/08/24 03:15:04;;;;;;;2.20;0.60;;;;;;;19.81;55.75;99170.03;4897511;29;20289;-65
2022/08/24 03:18:49;;;;;;;2.97;0.47;;;;;;;20.00;55.51;99171.38;4874560;29;21150;-65
2022/08/24 03:26:12;;;;;;;3.33;0.73;;;;;;;20.21;56.28;99185.69;4884325;29;20294;-63
2022/08/24 03:29:38;;;;;;;5.47;0.70;;;;;;;20.80;56.21;99186.72;4828845;29;20323;-65
2022/08/24 03:32:58;;;;;;;4.53;0.90;;;;;;;21.38;55.16;99197.31;4798724;29;20526;-65
2022/08/24 03:36:22;;;;;;;5.50;1.93;;;;;;;21.72;52.30;99188.41;4813232;29;20315;-62
2022/08/24 03:39:37;;;;;;;1.53;0.70;;;;;;;22.34;52.27;99189.63;4847290;29;20309;-62
2022/08/24 03:43:02;;;;;;;4.77;1.00;;;;;;;22.81;48.69;99214.13;4856825;29;20534;-64
2022/08/24 03:46:25;;;;;;;2.57;0.57;;;;;;;22.51;50.66;99208.69;4864819;29;20292;-62
2022/08/24 03:49:52;;;;;;;4.00;1.17;;;;;;;22.64;49.37;99204.03;4839983;29;20321;-63
2022/08/24 03:53:11;;;;;;;;;;;;;;;23.03;47.11;99215.00;4808280;29;20604;-64
2022/08/24 03:56:26;;;;;;;8.97;3.47;;;;;;;23.23;48.27;99206.13;4799470;29;19927;-63
2022/08/24 04:00:05;;;;;;;6.27;0.70;;;;;;;23.50;47.18;99217.22;4804863;29;20297;-64
2022/08/24 04:03:16;;;;;;;3.97;0.67;;;;;;;23.39;46.55;99220.84;4773308;30;20290;-65
2022/08/24 04:10:13;;;;;;;4.20;2.00;;;;;;;23.11;45.26;99233.84;4749472;30;20133;-65
2022/08/24 04:13:25;;;;;;;29.27;19.57;;;;;;;23.08;45.35;99238.59;4782579;30;20059;-65
2022/08/24 04:19:56;;;;;;;1.90;0.70;;;;;;;22.43;45.09;99237.75;4726598;30;20102;-64
2022/08/24 04:23:30;;;;;;;3.07;0.90;;;;;;;22.59;45.29;99243.50;4689534;30;20166;-63
2022/08/24 04:27:06;;;;;;;14.27;8.13;;;;;;;22.57;44.36;99250.78;4717617;30;20049;-64
2022/08/24 04:30:17;;;;;;;24.10;16.50;;;;;;;22.36;45.18;99262.19;4722684;30;20247;-63
2022/08/24 04:37:19;;;;;;;22.10;3.40;;;;;;;22.03;46.54;99161.16;4707352;30;20076;-65
2022/08/24 04:41:07;;;;;;;2.80;1.07;;;;;;;22.96;47.62;99257.25;4771193;30;20163;-65
2022/08/24 04:47:28;;;;;;;13.33;1.57;;;;;;;23.16;46.16;99258.25;4764716;29;20070;-62
2022/08/24 04:53:52;;;;;;;;;;;;;;;22.88;45.61;99266.88;4810929;29;20058;-62
2022/08/24 04:57:24;;;;;;;4.23;0.87;;;;;;;22.70;47.18;99267.44;4840915;29;19959;-64
2022/08/24 05:01:07;;;;;;;3.90;0.80;;;;;;;22.53;48.00;99266.13;4841987;29;20058;-63
2022/08/24 05:04:27;;;;;;;22.60;5.87;;;;;;;22.29;48.11;99268.13;4871522;29;20069;-60
2022/08/24 05:07:33;;;;;;;10.63;2.80;;;;;;;21.91;47.17;99261.38;4878116;29;20053;-62
2022/08/24 05:11:09;;;;;;;8.60;3.80;;;;;;;22.00;48.14;99279.28;4998073;28;20061;-67
2022/08/24 05:15:10;;;;;;;5.50;1.70;;;;;;;22.05;47.96;99286.91;4959446;28;20186;-64
2022/08/24 05:18:32;;;;;;;14.23;5.00;;;;;;;22.24;48.37;99288.94;4983484;28;20058;-66
2022/08/24 05:22:13;;;;;;;9.77;3.73;;;;;;;22.06;47.53;99285.91;5030267;28;20069;-66
2022/08/24 05:25:36;;;;;;;24.93;10.50;;;;;;;21.98;47.40;99297.16;4914415;29;20163;-67
2022/08/24 05:29:32;;;;;;;2.47;0.87;;;;;;;21.85;46.89;99297.28;4865725;29;20048;-66
2022/08/24 05:33:03;;;;;;;4.67;0.87;;;;;;;21.96;46.14;99307.91;4895117;29;20041;-66
2022/08/24 05:39:33;;;;;;;3.53;1.47;;;;;;;22.00;47.75;99310.34;4792734;29;20106;-66
2022/08/24 05:43:13;;;;;;;11.13;1.33;;;;;;;22.13;46.32;99316.38;4857733;29;20338;-65
2022/08/24 05:46:33;;;;;;;3.33;0.87;;;;;;;22.05;45.42;99321.47;4855451;29;20053;-65
2022/08/24 06:05:54;;;;;;;5.70;0.90;;;;;;;22.59;45.92;99344.69;4758125;30;20133;-68
2022/08/24 06:08:35;;;;;;;7.57;1.30;;;;;;;22.00;47.69;99321.00;4785345;29;20058;-69
2022/08/24 06:11:43;;;;;;;5.73;0.87;;;;;;;21.78;48.37;99351.06;4783502;30;20068;-67
2022/08/24 06:14:31;;;;;;;13.10;1.03;;;;;;;22.04;46.24;99354.34;4774888;29;20122;-68
2022/08/24 06:32:12;;;;;;;3.57;0.63;;;;;;;21.23;49.38;99374.69;4805378;29;20069;-66
2022/08/24 06:35:12;;;;;;;8.90;0.87;;;;;;;20.98;52.41;99355.25;4875976;29;20050;-70
2022/08/24 06:37:46;;;;;;;;;;;;;;;21.03;50.81;99379.66;4853305;29;20286;-65
2022/08/24 06:40:29;;;;;;;10.43;1.30;;;;;;;20.95;51.57;99371.44;4919097;28;19924;-67
2022/08/24 06:43:32;;;;;;;6.60;0.90;;;;;;;20.63;51.08;99387.88;4999647;28;20344;-64
2022/08/24 06:46:44;;;;;;;15.23;2.73;;;;;;;20.22;53.58;99396.97;4987921;28;20306;-68
2022/08/24 06:53:13;;;;;;;5.87;1.23;;;;;;;20.09;53.60;99405.88;4998278;28;20325;-67
2022/08/24 06:59:48;;;;;;;1.37;0.60;;;;;;;19.99;51.48;99419.78;5080435;28;20281;-67
2022/08/24 07:03:14;;;;;;;6.60;1.00;;;;;;;19.61;52.42;99411.72;5080494;28;20278;-68
2022/08/24 07:06:31;;;;;;;2.23;0.80;;;;;;;19.45;51.84;99440.22;5080477;28;20638;-68
2022/08/24 07:09:40;;;;;;;6.30;0.70;;;;;;;19.24;52.00;99438.00;5080362;28;20283;-69
2022/08/24 07:12:42;;;;;;;6.20;1.00;;;;;;;19.15;53.49;99449.22;5079917;28;20303;-67
2022/08/24 07:16:00;;;;;;;8.07;0.90;;;;;;;19.28;52.82;99439.53;5078966;28;20048;-67
2022/08/24 07:22:09;;;;;;;16.17;1.17;;;;;;;19.78;51.83;99434.50;5080501;28;20568;-66
2022/08/24 07:25:04;;;;;;;4.13;0.90;;;;;;;19.97;49.86;99464.09;5073071;28;20282;-70
2022/08/24 07:27:57;;;;;;;112.60;70.50;;;;;;;20.04;50.37;99464.50;5079900;28;20293;-69
2022/08/24 07:31:16;;;;;;;25.73;11.83;;;;;;;20.13;50.31;99473.66;5080293;28;20620;-67
2022/08/24 07:37:54;;;;;;;9.07;4.80;;;;;;;20.18;48.67;99467.06;5050894;28;21083;-70
2022/08/24 07:40:42;;;;;;;6.97;3.73;;;;;;;20.18;50.00;99483.00;5080777;28;20332;-67
2022/08/24 07:43:51;;;;;;;6.37;1.47;;;;;;;20.18;50.52;99490.09;5077737;28;20282;-65
2022/08/24 07:50:30;;;;;;;12.43;6.73;;;;;;;20.18;49.71;99472.38;5083924;28;20348;-67
2022/08/24 07:53:10;;;;;;;10.03;2.17;;;;;;;20.13;49.43;99485.13;5084140;28;20363;-68
2022/08/24 07:56:33;;;;;;;5.37;1.40;;;;;;;20.11;48.50;99481.72;5083931;28;20448;-66
2022/08/24 07:59:54;;;;;;;12.77;1.07;;;;;;;19.97;49.79;99481.81;5016695;28;20307;-66
2022/08/24 08:03:26;;;;;;;4.40;0.80;;;;;;;19.90;49.22;99477.88;5000881;28;20300;-65
2022/08/24 08:06:22;;;;;;;9.30;0.80;;;;;;;19.85;50.25;99485.31;5019400;28;20276;-67
2022/08/24 08:09:29;;;;;;;;;;;;;;;;;;;;;
2022/08/24 08:13:07;;;;;;;6.53;3.80;;;;;;;19.77;50.14;99481.34;5042243;28;20671;-66
2022/08/24 08:19:39;;;;;;;3.57;0.90;;;;;;;19.76;50.24;99506.16;5001722;28;20291;-63
2022/08/24 08:26:06;;;;;;;8.73;1.00;;;;;;;19.68;49.39;99511.13;5001706;28;20276;-67
2022/08/24 08:29:29;;;;;;;6.33;1.23;;;;;;;19.59;50.06;99522.28;5009994;28;21479;-63
2022/08/24 08:32:33;;;;;;;6.67;1.10;;;;;;;19.48;51.36;99515.03;5007725;28;20431;-64
2022/08/24 08:39:08;;;;;;;10.67;1.10;;;;;;;19.35;52.14;99522.94;5041568;28;20351;-70
2022/08/24 08:42:37;;;;;;;12.77;2.07;;;;;;;19.36;53.44;99521.13;4983066;28;20292;-66
2022/08/24 08:46:26;;;;;;;13.97;1.43;;;;;;;19.45;53.41;99525.00;4966433;28;20315;-63
2022/08/24 08:54:23;;;;;;;14.70;1.30;;;;;;;19.68;58.24;99540.28;4994714;28;20355;-63
2022/08/24 09:01:18;;;;;;;125.93;6.73;;;;;;;19.53;61.59;99575.69;4999532;28;20294;-64
2022/08/24 09:08:26;;;;;;;;;;;;;;;;;;;;;
2022/08/24 09:11:38;;;;;;;52.17;3.80;;;;;;;18.51;64.57;99581.94;5052068;28;20477;-65
2022/08/24 09:15:18;;;;;;;69.93;5.10;;;;;;;18.13;65.92;99596.59;5060584;28;20318;-65
2022/08/24 09:18:33;;;;;;;9.57;1.35;;;;;;;17.62;67.57;99597.66;4991850;28;20299;-63
2022/08/24 09:22:07;;;;;;;7.57;1.40;;;;;;;17.42;69.09;99608.47;4991558;28;20046;-65
2022/08/24 09:25:14;;;;;;;34.27;3.10;;;;;;;16.97;70.56;99594.19;4990499;28;20282;-62
2022/08/24 09:28:45;;;;;;;110.80;7.27;;;;;;;16.50;71.42;99557.94;4894807;29;20306;-63
2022/08/24 09:42:59;;;;;;;17.90;1.63;;;;;;;16.25;74.95;99680.47;4837171;29;20377;-62
2022/08/24 09:46:25;;;;;;;9.67;1.70;;;;;;;16.17;74.94;99688.75;4838761;29;20288;-64
2022/08/24 09:57:36;;;;;;;12.00;1.50;;;;;;;16.15;73.46;99710.84;4899248;29;20408;-63
2022/08/24 10:15:54;;;;;;;22.33;1.97;;;;;;;15.27;75.20;99737.69;4759678;30;20357;-64
2022/08/24 10:22:37;;;;;;;6.73;3.07;;;;;;;14.78;77.66;99739.81;4785596;29;20296;-63
2022/08/24 10:25:41;;;;;;;15.55;2.85;;;;;;;14.58;78.27;99744.13;4797284;29;20308;-64
2022/08/24 10:41:55;;;;;;;42.07;2.77;;;;;;;14.26;80.94;99762.94;4796536;29;20356;-63
2022/08/24 10:45:20;;;;;;;78.83;4.53;;;;;;;14.30;81.00;99753.97;4800472;29;20356;-61
2022/08/24 10:49:11;;;;;;;34.20;2.97;;;;;;;14.31;80.87;99751.31;4924423;29;20526;-62
2022/08/24 10:52:27;;;;;;;19.97;2.30;;;;;;;14.31;80.93;99758.34;4931027;29;20307;-66
2022/08/24 10:55:37;;;;;;;9.80;1.27;;;;;;;14.09;80.53;99725.03;4939776;29;20294;-65
2022/08/24 10:58:43;;;;;;;3.83;1.20;;;;;;;14.22;79.85;99762.19;4944877;29;20363;-66
2022/08/24 11:02:05;;;;;;;15.33;1.43;;;;;;;14.10;79.93;99752.16;4943888;29;20363;-64
2022/08/24 11:05:17;;;;;;;11.68;1.38;;;;;;;13.94;80.59;99762.41;4944507;29;20287;-65
2022/08/24 11:08:07;;;;;;;3.90;1.13;;;;;;;13.95;81.32;99750.97;4939552;29;20099;-64
2022/08/24 11:11:34;;;;;;;2.78;1.02;;;;;;;13.91;81.27;99746.75;4906277;29;20285;-65
2022/08/24 11:14:39;;;;;;;3.97;1.40;;;;;;;13.95;81.68;99753.59;4906428;29;20052;-65
2022/08/24 11:18:07;;;;;;;;;;;;;;;;;;;;;
2022/08/24 11:27:53;;;;;;;17.80;1.83;;;;;;;13.91;82.63;99754.63;4907243;29;20289;-62
2022/08/24 11:30:52;;;;;;;19.13;2.50;;;;;;;13.88;83.17;99752.09;4923560;29;20292;-64
2022/08/24 11:33:37;;;;;;;18.90;2.25;;;;;;;13.84;82.98;99740.03;4922790;29;20064;-62
2022/08/24 11:36:31;;;;;;;15.20;1.80;;;;;;;13.85;82.88;99762.72;4923887;29;20048;-63
2022/08/24 11:39:31;;;;;;;3.38;1.40;;;;;;;13.78;83.77;99762.13;4923672;29;20047;-64
2022/08/24 11:42:24;;;;;;;7.22;1.58;;;;;;;13.88;84.08;99762.63;4921806;29;20091;-64
2022/08/24 11:45:41;;;;;;;8.45;1.45;;;;;;;13.95;84.04;99774.59;4899609;29;20139;-66
2022/08/24 11:48:36;;;;;;;12.75;1.60;;;;;;;14.07;83.67;99779.38;4907423;29;20062;-64
2022/08/24 11:51:30;;;;;;;11.90;1.40;;;;;;;13.92;83.03;99759.81;4923150;29;20043;-63
2022/08/24 11:54:23;;;;;;;10.82;1.25;;;;;;;13.93;83.18;99784.34;4921029;29;20411;-65
2022/08/24 11:57:19;;;;;;;3.05;1.13;;;;;;;13.72;82.98;99784.19;4922472;29;20162;-65
2022/08/24 12:03:09;;;;;;;6.00;3.60;;;;;;;13.37;83.56;99798.59;4891652;29;20060;-65
2022/08/24 12:09:25;;;;;;;4.57;1.88;;;;;;;13.20;85.58;99796.53;4922531;29;20078;-63
2022/08/24 12:12:18;;;;;;;5.88;1.55;;;;;;;13.24;86.06;99803.38;4920975;29;20104;-63
2022/08/24 12:15:01;;;;;;;7.57;1.40;;;;;;;13.31;86.26;99799.69;4892589;29;20131;-62
2022/08/24 12:18:03;;;;;;;2.70;1.30;;;;;;;13.39;86.02;99802.03;4921558;29;20055;-64
2022/08/24 12:21:10;;;;;;;4.00;1.33;;;;;;;13.46;85.95;99802.69;4920470;29;20055;-64
2022/08/24 12:31:20;;;;;;;3.17;0.80;;;;;;;13.45;85.94;99816.69;4867582;29;20060;-64
2022/08/24 12:48:08;;;;;;;6.38;1.13;;;;;;;13.34;85.53;99810.06;4947146;29;20051;-64
2022/08/24 12:51:46;;;;;;;7.32;1.20;;;;;;;13.26;85.22;99796.31;4951911;29;20063;-65
2022/08/24 12:55:25;;;;;;;5.47;0.80;;;;;;;13.26;85.17;99812.06;4950593;29;20047;-63
2022/08/24 13:09:21;;;;;;;2.42;0.80;;;;;;;13.13;85.88;99811.63;4923541;29;20060;-63
2022/08/24 13:16:16;;;;;;;3.78;1.10;;;;;;;13.26;86.32;99822.56;4924286;29;20059;-65
2022/08/24 13:19:38;;;;;;;5.00;1.70;;;;;;;13.28;86.34;99826.03;4923973;29;20048;-63
2022/08/24 13:23:18;;;;;;;4.80;1.00;;;;;;;13.32;85.73;99827.63;4848800;29;20208;-67
2022/08/24 13:26:40;;;;;;;2.67;1.00;;;;;;;13.19;85.80;99820.22;4849656;29;20049;-67
2022/08/24 13:29:38;;;;;;;4.60;0.88;;;;;;;13.16;85.86;99815.91;4849393;29;20054;-63
2022/08/24 13:32:53;;;;;;;7.65;2.10;;;;;;;13.18;86.22;99819.34;4849630;29;20089;-65
2022/08/24 13:36:11;;;;;;;5.30;0.90;;;;;;;13.17;86.19;99817.63;4856822;29;20548;-65
2022/08/24 13:39:38;;;;;;;4.97;0.82;;;;;;;13.24;86.45;99813.88;4848519;29;20056;-65
2022/08/24 13:42:52;;;;;;;3.30;0.90;;;;;;;12.80;86.75;99737.56;4886590;29;20052;-64
2022/08/24 13:46:20;;;;;;;5.07;0.90;;;;;;;13.08;86.50;99791.69;4883103;29;20055;-65
2022/08/24 13:49:25;;;;;;;2.67;0.70;;;;;;;13.17;86.87;99817.63;4886275;29;20293;-66
2022/08/24 13:52:21;;;;;;;3.05;1.10;;;;;;;13.13;87.17;99821.28;4855802;29;20060;-65
2022/08/24 13:55:24;;;;;;;7.65;1.00;;;;;;;13.12;87.38;99809.06;4892884;29;20061;-64
2022/08/24 13:58:40;;;;;;;5.10;0.93;;;;;;;13.13;87.35;99810.78;4952664;28;20061;-65
2022/08/24 14:01:43;;;;;;;8.88;1.13;;;;;;;13.19;87.95;99805.31;5022504;28;20046;-65
2022/08/24 14:04:47;;;;;;;3.88;1.20;;;;;;;13.25;87.19;99805.09;5023095;28;20058;-63
2022/08/24 14:07:43;;;;;;;6.18;1.60;;;;;;;13.22;87.25;99809.59;5022967;28;20046;-65
2022/08/24 14:10:54;;;;;;;8.98;1.60;;;;;;;13.12;87.22;99799.41;4977985;28;20064;-66
2022/08/24 14:13:52;;;;;;;9.88;1.90;;;;;;;13.13;87.17;99800.28;5013518;28;20227;-65
2022/08/24 14:20:26;;;;;;;7.97;2.05;;;;;;;13.17;87.47;99813.22;5022068;28;20465;-66
2022/08/24 14:23:17;;;;;;;7.63;1.70;;;;;;;12.71;87.09;99748.38;5022742;28;20041;-64
2022/08/24 14:26:50;;;;;;;10.43;1.83;;;;;;;13.04;87.41;99805.84;5020527;28;20060;-65
2022/08/24 14:34:17;;;;;;;5.25;1.80;;;;;;;12.97;87.66;99806.97;5031334;28;20226;-65
2022/08/24 14:37:05;;;;;;;9.52;1.80;;;;;;;12.98;87.74;99811.28;5061863;28;20044;-65
2022/08/24 14:39:51;;;;;;;7.90;1.58;;;;;;;12.99;87.67;99813.00;4987996;28;20080;-63
2022/08/24 14:42:39;;;;;;;7.13;1.65;;;;;;;12.92;87.54;99812.34;5062118;28;20116;-64
2022/08/24 14:45:24;;;;;;;4.97;1.40;;;;;;;12.92;87.60;99818.44;4955217;28;20501;-65
2022/08/24 14:48:16;;;;;;;11.13;1.60;;;;;;;12.88;87.28;99816.84;5059579;28;20084;-64
2022/08/24 14:51:25;;;;;;;9.13;1.50;;;;;;;12.89;87.44;99833.44;5061730;28;20056;-66
2022/08/24 14:54:36;;;;;;;7.55;1.58;;;;;;;12.83;87.84;99829.25;5030242;28;20051;-67
2022/08/24 14:57:54;;;;;;;7.30;1.70;;;;;;;12.82;88.36;99832.75;5061666;28;20061;-66
2022/08/24 15:01:05;;;;;;;7.50;1.67;;;;;;;12.83;88.24;99839.75;5061580;28;20091;-67
2022/08/24 15:04:30;;;;;;;5.35;1.88;;;;;;;12.87;88.34;99838.72;5061897;28;20214;-66
2022/08/24 15:07:32;;;;;;;6.22;1.77;;;;;;;12.86;88.01;99828.31;5061672;28;20045;-66
2022/08/24 15:10:26;;;;;;;13.18;2.20;;;;;;;12.85;87.63;99837.06;5030024;28;20103;-64
2022/08/24 15:13:16;;;;;;;8.65;2.10;;;;;;;12.78;88.18;99823.31;5018133;28;20048;-65
2022/08/24 15:19:15;;;;;;;16.80;2.47;;;;;;;12.84;87.89;99820.47;5060881;28;19968;-63
2022/08/24 15:22:10;;;;;;;12.57;1.60;;;;;;;12.67;87.65;99780.84;5061729;28;20070;-65
2022/08/24 15:28:35;;;;;;;8.68;1.98;;;;;;;12.92;87.41;99825.47;5061979;28;20052;-63
2022/08/24 15:38:17;;;;;;;5.18;2.10;;;;;;;12.97;86.97;99814.81;5025029;28;20618;-66
2022/08/24 15:41:32;;;;;;;3.33;1.63;;;;;;;12.94;87.10;99821.88;5012913;28;20369;-68
2022/08/24 15:44:27;;;;;;;7.80;2.15;;;;;;;12.85;87.00;99811.69;5028434;28;20057;-63
2022/08/24 15:47:48;;;;;;;8.82;2.00;;;;;;;12.92;87.17;99815.81;5029388;28;20080;-64
2022/08/24 15:50:59;;;;;;;7.80;2.20;;;;;;;12.89;87.35;99813.31;5061932;28;20144;-65
2022/08/24 15:54:17;;;;;;;11.13;2.17;;;;;;;12.94;86.70;99816.63;4982353;28;20260;-64
2022/08/24 15:57:20;;;;;;;7.93;2.25;;;;;;;12.89;86.37;99822.94;4966463;28;20067;-65
2022/08/24 16:00:14;;;;;;;8.43;2.40;;;;;;;12.85;86.71;99819.53;4982635;28;20059;-66
2022/08/24 16:03:37;;;;;;;7.57;2.00;;;;;;;12.77;87.50;99824.19;4982642;28;20054;-66
2022/08/24 16:06:27;;;;;;;8.52;2.40;;;;;;;12.79;87.78;99830.25;4982227;28;20306;-66
2022/08/24 16:09:16;;;;;;;12.27;2.28;;;;;;;12.80;87.59;99829.34;4968683;28;20058;-64
2022/08/24 16:12:05;;;;;;;11.65;2.38;;;;;;;12.72;87.59;99810.38;4985647;28;20151;-68
2022/08/24 16:15:08;;;;;;;8.73;1.95;;;;;;;12.81;87.59;99824.97;4985882;28;20046;-67
2022/08/24 16:17:53;;;;;;;6.28;2.28;;;;;;;12.78;87.67;99825.94;4985106;28;20102;-66
2022/08/24 16:20:37;;;;;;;11.27;2.35;;;;;;;12.40;87.63;99751.97;4941636;28;20054;-66
2022/08/24 16:23:42;;;;;;;12.80;2.42;;;;;;;12.63;87.83;99797.56;4985233;28;20077;-66
2022/08/24 16:26:36;;;;;;;9.25;2.28;;;;;;;12.79;87.94;99821.53;4985173;28;20143;-64
2022/08/24 16:29:58;;;;;;;8.98;2.40;;;;;;;12.74;88.21;99811.19;4985700;28;20066;-66
2022/08/24 16:32:56;;;;;;;6.07;2.10;;;;;;;12.72;88.44;99810.38;5015566;28;20072;-66
2022/08/24 16:35:40;;;;;;;12.25;2.33;;;;;;;12.55;88.34;99786.47;5064521;28;20080;-69
2022/08/24 16:39:08;;;;;;;7.53;2.60;;;;;;;12.78;88.38;99810.19;5064229;28;20064;-68
2022/08/24 16:41:49;;;;;;;6.30;2.55;;;;;;;12.74;88.56;99798.09;5063293;28;20076;-68
2022/08/24 16:44:35;;;;;;;9.55;2.80;;;;;;;12.83;88.60;99802.16;5064464;28;20109;-67
2022/08/24 16:47:16;;;;;;;10.10;2.20;;;;;;;12.79;88.15;99790.91;5031004;28;20063;-67
2022/08/24 16:50:01;;;;;;;6.80;2.38;;;;;;;12.82;87.79;99801.31;5064020;28;20158;-64
2022/08/24 16:52:50;;;;;;;14.55;2.35;;;;;;;12.76;87.95;99804.13;5063211;28;20243;-68
2022/08/24 16:55:43;;;;;;;15.10;2.53;;;;;;;12.70;88.13;99791.22;5032320;28;20061;-68
2022/08/24 16:58:31;;;;;;;8.23;2.30;;;;;;;12.71;88.29;99803.44;5019972;28;20108;-68
2022/08/24 17:01:12;;;;;;;11.00;2.45;;;;;;;12.70;88.41;99802.59;4988059;28;20087;-67
2022/08/24 17:03:52;;;;;;;8.43;2.45;;;;;;;12.71;88.51;99798.19;5063308;28;20377;-66
2022/08/24 17:06:42;;;;;;;12.27;2.63;;;;;;;12.56;88.22;99757.59;5064143;28;20273;-67
2022/08/24 17:09:20;;;;;;;7.90;2.50;;;;;;;12.81;87.71;99802.22;5063266;28;20318;-67
2022/08/24 17:12:07;;;;;;;10.00;2.30;;;;;;;12.82;87.36;99785.56;5056099;28;20057;-67
2022/08/24 17:14:57;;;;;;;11.05;2.60;;;;;;;12.86;87.27;99797.69;5019398;28;20045;-64
2022/08/24 17:17:34;;;;;;;9.20;2.25;;;;;;;12.84;87.38;99794.25;5061883;28;20053;-68
2022/08/24 17:20:25;;;;;;;7.45;2.08;;;;;;;12.86;87.28;99792.44;5020147;28;20087;-68
2022/08/24 17:23:07;;;;;;;8.77;2.10;;;;;;;12.89;87.18;99792.31;5063386;28;20077;-68
2022/08/24 17:25:58;;;;;;;8.20;1.80;;;;;;;12.84;87.34;99789.00;5020438;28;20068;-66
2022/08/24 17:29:09;;;;;;;9.85;2.10;;;;;;;12.83;87.64;99795.16;5062624;28;20079;-69
2022/08/24 17:31:57;;;;;;;7.15;2.10;;;;;;;12.81;88.07;99798.75;5063346;28;20303;-70
2022/08/24 17:34:34;;;;;;;7.35;2.08;;;;;;;12.76;88.35;99801.53;5063185;28;20220;-68
2022/08/24 17:37:14;;;;;;;17.02;2.47;;;;;;;12.70;88.70;99802.59;5063177;28;20060;-65
2022/08/24 17:39:59;;;;;;;7.25;1.90;;;;;;;12.49;89.33;99780.53;5013490;28;20329;-67
2022/08/24 17:42:37;;;;;;;7.68;2.22;;;;;;;12.65;89.97;99812.34;5063497;28;20060;-68
2022/08/24 17:45:32;;;;;;;7.13;1.67;;;;;;;12.70;90.76;99812.19;5063240;28;20049;-68
2022/08/24 17:48:21;;;;;;;14.23;2.10;;;;;;;12.69;90.81;99805.25;5062386;28;20044;-70
2022/08/24 17:51:04;;;;;;;11.07;1.88;;;;;;;12.72;91.08;99810.38;5060015;28;20053;-69
2022/08/24 17:53:42;;;;;;;6.38;1.70;;;;;;;12.57;91.68;99789.91;5060744;28;20396;-65
2022/08/24 17:56:19;;;;;;;8.30;1.75;;;;;;;12.69;91.88;99805.25;5062560;28;20057;-66
2022/08/24 17:59:32;;;;;;;5.72;1.63;;;;;;;12.67;92.10;99796.56;5024875;28;20045;-67
2022/08/24 18:02:21;;;;;;;5.03;1.60;;;;;;;12.73;92.30;99812.13;5062449;28;20095;-66
2022/08/24 18:05:18;;;;;;;5.00;1.60;;;;;;;12.73;92.54;99806.88;5034580;28;20068;-65
2022/08/24 18:08:03;;;;;;;8.70;1.58;;;;;;;12.70;92.46;99801.69;5018565;28;20075;-68
2022/08/24 18:10:51;;;;;;;13.68;1.75;;;;;;;12.25;92.71;99731.53;5060698;28;20121;-68
2022/08/24 18:13:32;;;;;;;7.53;1.42;;;;;;;12.66;92.71;99806.19;5000091;28;20110;-69
2022/08/24 18:21:59;;;;;;;;;;;;;;;12.70;93.27;99801.69;4993541;28;20064;-67
2022/08/24 18:24:51;;;;;;;7.32;1.35;;;;;;;12.44;93.25;99758.84;5040254;28;19963;-69
2022/08/24 18:27:33;;;;;;;11.45;2.00;;;;;;;12.45;93.28;99773.66;4994901;28;20100;-68
2022/08/24 18:30:20;;;;;;;7.40;1.67;;;;;;;12.70;93.46;99817.44;5041784;28;20088;-68
2022/08/24 18:33:11;;;;;;;8.07;1.65;;;;;;;12.70;93.45;99813.06;5042262;28;20276;-66
2022/08/24 18:35:53;;;;;;;3.92;1.50;;;;;;;12.69;93.52;99807.88;5000769;28;20057;-66
2022/08/24 18:38:47;;;;;;;5.70;1.58;;;;;;;12.65;93.90;99803.63;5013964;28;20053;-68
2022/08/24 18:41:34;;;;;;;5.90;1.58;;;;;;;12.64;93.86;99801.91;5010047;28;20061;-68
2022/08/24 18:47:45;;;;;;;6.22;2.22;;;;;;;12.80;93.52;99810.97;5040789;28;20076;-69
2022/08/24 18:50:35;;;;;;;7.70;1.80;;;;;;;12.70;93.39;99813.06;5040987;28;20061;-67
2022/08/24 18:53:34;;;;;;;5.85;1.58;;;;;;;12.77;93.32;99828.59;5041772;28;20135;-68
2022/08/24 18:56:21;;;;;;;3.72;1.50;;;;;;;12.81;93.62;99825.81;4997034;28;20343;-68
2022/08/24 18:58:59;;;;;;;9.63;2.28;;;;;;;12.78;93.71;99820.69;4996670;28;20080;-69
2022/08/24 19:04:33;;;;;;;7.80;1.80;;;;;;;12.94;93.59;99834.13;5039510;28;20068;-67
2022/08/24 19:07:19;;;;;;;5.43;1.83;;;;;;;12.88;92.72;99824.72;5012214;28;20068;-68
2022/08/24 19:10:00;;;;;;;14.32;2.00;;;;;;;12.91;92.88;99837.72;5037787;28;20057;-68
2022/08/24 19:12:51;;;;;;;7.90;2.05;;;;;;;12.92;92.89;99833.31;4996853;28;20096;-67
2022/08/24 19:15:25;;;;;;;13.52;2.10;;;;;;;12.86;92.83;99823.91;4997169;28;20330;-70
2022/08/24 19:18:14;;;;;;;9.15;2.00;;;;;;;12.85;92.91;99827.41;5041924;28;20061;-69
2022/08/24 19:24:03;;;;;;;9.20;1.70;;;;;;;12.90;93.23;99825.53;5002631;28;20079;-67
2022/08/24 19:26:41;;;;;;;15.20;2.30;;;;;;;12.86;93.66;99823.91;4996471;28;20061;-68
2022/08/24 19:29:34;;;;;;;18.80;2.45;;;;;;;12.87;93.62;99833.47;5040721;28;20057;-70
2022/08/24 19:32:37;;;;;;;7.82;1.95;;;;;;;12.69;93.71;99811.34;5041352;28;20116;-71